Time;durP1;ratioP1;P1;durP2;ratioP2;P2;SDS_P1;SDS_P2;PMS_P1;PMS_P2;Temp;Humidity;BMP_temperature;BMP_pressure;BME280_temperature;BME280_humidity;BME280_pressure;Samples;Min_cycle;Max_cycle;Signal;HPM_P1;HPM_P2
2023/02/13 00:01:05;;;;;;;8.10;4.93;;;;;;;9.24;46.06;103326.94;4896705;29;20044;-83
2023/02/13 00:03:33;;;;;;;8.27;5.38;;;;;;;9.23;46.06;103319.69;4894603;29;20084;-83
2023/02/13 00:06:03;;;;;;;8.02;5.10;;;;;;;9.25;45.83;103323.22;4894647;29;20508;-83
2023/02/13 00:08:31;;;;;;;8.85;5.28;;;;;;;9.23;46.25;103318.81;4891206;29;20048;-82
2023/02/13 00:10:59;;;;;;;7.68;4.80;;;;;;;9.23;46.50;103327.91;4898141;29;20131;-83
2023/02/13 00:13:27;;;;;;;7.25;4.38;;;;;;;9.21;46.10;103318.88;4894316;29;20036;-83
2023/02/13 00:15:56;;;;;;;8.95;4.68;;;;;;;9.24;46.32;103312.41;4916664;29;20542;-83
2023/02/13 00:18:24;;;;;;;8.90;5.20;;;;;;;9.21;45.94;103318.88;4899130;29;20547;-83
2023/02/13 00:21:00;;;;;;;8.15;4.88;;;;;;;9.25;45.89;103314.13;4888562;29;20068;-83
2023/02/13 00:23:31;;;;;;;8.32;4.70;;;;;;;9.22;46.15;103311.56;4892857;29;20503;-83
2023/02/13 00:26:00;;;;;;;7.00;4.25;;;;;;;9.20;46.25;103305.25;4893786;29;20134;-83
2023/02/13 00:28:28;;;;;;;8.50;5.63;;;;;;;9.17;46.02;103297.19;4914193;29;20049;-82
2023/02/13 00:31:04;;;;;;;8.30;4.90;;;;;;;9.21;45.99;103298.84;4893889;29;20045;-83
2023/02/13 00:33:33;;;;;;;8.10;5.28;;;;;;;9.16;46.35;103301.78;4899652;29;20051;-83
2023/02/13 00:36:06;;;;;;;10.15;5.90;;;;;;;9.20;46.34;103303.41;4894454;29;20069;-82
2023/02/13 00:38:37;;;;;;;9.52;5.13;;;;;;;9.18;45.84;103299.84;4895077;29;20040;-82
2023/02/13 00:41:06;;;;;;;8.60;4.97;;;;;;;9.17;46.09;103297.19;4888921;29;20499;-82
2023/02/13 00:43:35;;;;;;;8.18;5.15;;;;;;;9.17;46.04;103287.16;4897474;29;20135;-83
2023/02/13 00:46:04;;;;;;;9.95;5.75;;;;;;;9.14;46.16;103283.69;4892707;29;20500;-83
2023/02/13 00:48:34;;;;;;;8.80;5.30;;;;;;;9.14;46.27;103280.94;4890038;29;20826;-83
2023/02/13 00:51:04;;;;;;;10.43;5.70;;;;;;;9.16;46.01;103289.97;4905170;29;20048;-82
2023/02/13 00:53:32;;;;;;;8.73;5.45;;;;;;;9.16;46.49;103279.03;4888144;29;20261;-82
2023/02/13 00:56:02;;;;;;;9.85;5.45;;;;;;;9.16;45.96;103287.25;4910924;29;20502;-83
2023/02/13 00:58:31;;;;;;;10.52;6.18;;;;;;;9.13;46.21;103282.78;4900853;29;20048;-83
2023/02/13 01:00:59;;;;;;;9.77;6.00;;;;;;;9.12;46.17;103283.75;4899611;29;20049;-83
2023/02/13 01:03:28;;;;;;;10.52;5.57;;;;;;;9.14;46.02;103286.41;4882282;29;20051;-82
2023/02/13 01:05:57;;;;;;;9.40;5.45;;;;;;;9.13;46.30;103290.97;4906085;29;20111;-82
2023/02/13 01:08:27;;;;;;;9.07;6.00;;;;;;;9.14;46.27;103291.88;4893087;29;20083;-82
2023/02/13 01:10:55;;;;;;;8.38;5.75;;;;;;;9.13;46.06;103285.53;4916104;29;20040;-82
2023/02/13 01:13:26;;;;;;;9.15;5.57;;;;;;;9.14;46.47;103295.50;4903680;29;20052;-82
2023/02/13 01:15:55;;;;;;;8.57;5.57;;;;;;;9.12;46.03;103288.31;4894944;29;20052;-82
2023/02/13 01:18:23;;;;;;;8.60;5.38;;;;;;;9.12;46.05;103297.41;4901143;29;20140;-82
2023/02/13 01:21:00;;;;;;;9.65;5.45;;;;;;;9.14;45.97;103289.16;4893633;29;20115;-83
2023/02/13 01:23:30;;;;;;;9.52;5.63;;;;;;;9.12;45.92;103280.13;4899037;29;20049;-83
2023/02/13 01:25:59;;;;;;;7.97;5.22;;;;;;;9.12;46.25;103282.84;4892919;29;20104;-82
2023/02/13 01:28:28;;;;;;;10.32;5.57;;;;;;;9.13;46.30;103279.16;4915023;29;20054;-82
2023/02/13 01:30:57;;;;;;;10.35;5.82;;;;;;;9.10;46.28;103278.34;4888794;29;20048;-82
2023/02/13 01:33:28;;;;;;;11.48;5.97;;;;;;;9.10;45.87;103274.72;4896269;29;20048;-82
2023/02/13 01:35:56;;;;;;;9.45;6.05;;;;;;;9.09;46.26;103273.81;4895248;29;20234;-81
2023/02/13 01:38:24;;;;;;;9.63;5.93;;;;;;;9.10;46.13;103277.44;4905721;29;20087;-81
2023/02/13 01:40:54;;;;;;;10.20;6.07;;;;;;;9.09;45.87;103272.94;4917194;29;20100;-82
2023/02/13 01:43:24;;;;;;;8.85;5.93;;;;;;;9.08;45.95;103276.66;4871826;29;20076;-82
2023/02/13 01:45:57;;;;;;;9.75;5.72;;;;;;;9.10;45.98;103281.06;4895687;29;20059;-82
2023/02/13 01:48:27;;;;;;;8.98;5.45;;;;;;;9.06;46.08;103273.97;4895582;29;20132;-83
2023/02/13 01:51:04;;;;;;;9.63;5.75;;;;;;;9.07;45.93;103274.88;4896012;29;20072;-82
2023/02/13 01:53:38;;;;;;;9.18;6.07;;;;;;;9.04;45.86;103269.53;4908390;29;20056;-83
2023/02/13 01:56:12;;;;;;;10.05;5.93;;;;;;;9.05;46.23;103271.31;4887502;29;20086;-82
2023/02/13 01:58:42;;;;;;;;;;;;;;;8.78;46.61;103272.47;4889657;29;20052;-83
2023/02/13 02:01:15;;;;;;;8.77;5.45;;;;;;;8.98;45.99;103269.78;4899176;29;20316;-81
2023/02/13 02:03:49;;;;;;;8.63;5.30;;;;;;;8.99;45.86;103272.47;4891592;29;20052;-82
2023/02/13 02:06:23;;;;;;;8.63;5.60;;;;;;;8.99;46.11;103268.84;4901830;29;20044;-83
2023/02/13 02:08:54;;;;;;;8.63;5.40;;;;;;;8.98;46.19;103275.25;4913291;29;20087;-82
2023/02/13 02:11:30;;;;;;;9.23;5.78;;;;;;;8.98;46.21;103275.25;4901993;29;20052;-82
2023/02/13 02:14:00;;;;;;;7.80;5.00;;;;;;;8.94;46.50;103268.13;4902587;29;20047;-83
2023/02/13 02:16:34;;;;;;;9.02;4.90;;;;;;;8.94;46.28;103268.13;4902812;29;20048;-82
2023/02/13 02:19:10;;;;;;;9.48;5.85;;;;;;;8.93;46.16;103275.44;4905833;29;20044;-83
2023/02/13 02:22:00;;;;;;;9.63;5.68;;;;;;;8.93;45.89;103274.53;4892875;29;20048;-83
2023/02/13 02:25:00;;;;;;;9.95;5.68;;;;;;;8.94;46.14;103276.31;4884103;29;20044;-81
2023/02/13 02:27:53;;;;;;;9.20;5.55;;;;;;;8.92;46.49;103272.75;4886887;29;20060;-81
2023/02/13 02:30:46;;;;;;;10.32;5.45;;;;;;;8.92;46.25;103270.03;4894954;29;20048;-80
2023/02/13 02:33:33;;;;;;;9.30;5.82;;;;;;;8.91;46.02;103273.75;4901357;29;20063;-81
2023/02/13 02:36:19;;;;;;;10.80;5.95;;;;;;;8.91;46.00;103271.91;4913918;29;20048;-80
2023/02/13 02:39:06;;;;;;;8.40;5.15;;;;;;;8.91;46.36;103271.91;4910903;29;20046;-81
2023/02/13 02:41:55;;;;;;;9.23;5.18;;;;;;;8.90;46.29;103275.59;4892900;29;20056;-82
2023/02/13 02:44:33;;;;;;;9.40;5.22;;;;;;;8.91;46.03;103273.75;4911919;29;20066;-81
2023/02/13 02:50:16;;;;;;;8.80;5.13;;;;;;;8.88;46.49;103274.75;4939608;23;20390;-79
2023/02/13 02:52:55;;;;;;;8.35;4.70;;;;;;;8.89;46.06;103270.19;4948047;29;20047;-79
2023/02/13 02:55:35;;;;;;;7.68;5.07;;;;;;;8.88;46.29;103269.28;4932745;29;20414;-78
2023/02/13 03:06:40;;;;;;;8.45;4.72;;;;;;;8.85;46.04;103271.25;4927084;29;20044;-79
2023/02/13 03:14:47;;;;;;;8.32;4.70;;;;;;;8.82;46.16;103268.66;4920568;29;20036;-78
2023/02/13 03:23:13;;;;;;;6.88;4.53;;;;;;;8.83;46.29;103270.44;4915479;29;20048;-79
2023/02/13 03:26:32;;;;;;;9.40;5.32;;;;;;;8.82;46.07;103275.03;4911864;29;20032;-79
2023/02/13 03:32:04;;;;;;;7.90;4.78;;;;;;;8.80;46.52;103271.47;4942974;29;20048;-78
2023/02/13 03:40:17;;;;;;;8.68;5.00;;;;;;;8.80;46.20;103266.00;4911663;29;20136;-78
2023/02/13 03:42:51;;;;;;;9.27;5.00;;;;;;;8.81;46.40;103265.03;4931414;29;20032;-77
2023/02/13 03:50:04;;;;;;;8.10;5.22;;;;;;;8.77;46.21;103262.50;4933334;29;20108;-78
2023/02/13 03:51:01;;;;;;;8.07;5.10;;;;;;;8.79;46.31;103263.31;4942896;29;20044;-78
2023/02/13 03:53:32;;;;;;;9.35;5.20;;;;;;;8.79;46.47;103264.22;4929957;29;20443;-79
2023/02/13 04:01:39;;;;;;;9.18;5.25;;;;;;;8.78;46.51;103267.91;4909857;29;20058;-79
2023/02/13 04:04:13;;;;;;;7.85;5.20;;;;;;;8.80;46.60;103270.56;4915781;29;20067;-79
2023/02/13 04:06:49;;;;;;;7.75;5.25;;;;;;;8.80;46.38;103271.47;4918928;29;20479;-79
2023/02/13 04:09:18;;;;;;;7.55;5.20;;;;;;;8.80;46.33;103273.31;4901002;29;20044;-78
2023/02/13 04:11:56;;;;;;;9.20;5.35;;;;;;;8.82;46.16;103277.75;4924609;29;20062;-78
2023/02/13 04:14:28;;;;;;;8.90;5.55;;;;;;;8.79;46.50;103275.13;4919479;29;20052;-79
2023/02/13 04:17:02;;;;;;;9.03;5.80;;;;;;;8.77;46.50;103281.59;4918742;29;20048;-79
2023/02/13 04:19:32;;;;;;;9.75;5.82;;;;;;;8.79;46.23;103282.44;4928507;29;20475;-79
2023/02/13 04:22:02;;;;;;;9.65;5.88;;;;;;;8.79;46.26;103280.59;4918334;29;20070;-79
2023/02/13 04:24:30;;;;;;;8.88;5.82;;;;;;;8.77;46.59;103281.59;4906828;29;20047;-78
2023/02/13 04:26:59;;;;;;;8.77;5.72;;;;;;;8.77;46.26;103287.97;4932876;29;20051;-79
2023/02/13 04:29:27;;;;;;;8.68;5.50;;;;;;;8.77;46.75;103273.41;4918582;29;20047;-78
2023/02/13 04:31:55;;;;;;;8.45;5.50;;;;;;;8.76;46.26;103275.25;4920071;29;20420;-78
2023/02/13 04:34:23;;;;;;;9.77;6.35;;;;;;;8.77;46.66;103277.03;4909779;29;20349;-79
2023/02/13 04:36:51;;;;;;;8.52;5.75;;;;;;;8.77;46.63;103277.03;4916439;29;20447;-79
2023/02/13 04:39:19;;;;;;;9.77;6.20;;;;;;;8.77;46.20;103293.41;4923925;29;20052;-78
2023/02/13 04:41:47;;;;;;;8.18;5.50;;;;;;;8.78;46.41;103286.13;4914811;29;20075;-79
2023/02/13 04:44:16;;;;;;;8.73;5.50;;;;;;;8.78;46.31;103280.66;4927598;29;20052;-79
2023/02/13 04:46:43;;;;;;;7.95;5.32;;;;;;;8.77;46.63;103281.59;4914058;29;20091;-79
2023/02/13 04:49:11;;;;;;;8.85;5.50;;;;;;;8.77;46.36;103278.88;4923581;29;20520;-79
2023/02/13 04:51:39;;;;;;;8.30;5.40;;;;;;;8.76;46.47;103280.72;4927511;29;20028;-79
2023/02/13 04:54:07;;;;;;;9.25;6.18;;;;;;;8.75;46.34;103276.22;4931281;29;20048;-78
2023/02/13 04:56:35;;;;;;;8.80;5.75;;;;;;;8.77;46.28;103276.16;4939837;29;20036;-78
2023/02/13 04:59:03;;;;;;;7.85;5.15;;;;;;;8.75;46.70;103267.16;4919576;29;20075;-79
2023/02/13 05:01:32;;;;;;;8.15;5.63;;;;;;;8.76;46.42;103266.16;4901742;29;20059;-79
2023/02/13 05:04:00;;;;;;;8.75;6.00;;;;;;;8.74;46.38;103263.53;4930078;29;20047;-79
2023/02/13 05:06:28;;;;;;;9.35;6.25;;;;;;;8.73;46.28;103272.66;4914280;29;20048;-79
2023/02/13 05:08:56;;;;;;;9.20;5.97;;;;;;;8.74;46.13;103259.91;4916954;29;20040;-79
2023/02/13 05:11:24;;;;;;;7.80;5.75;;;;;;;8.71;46.38;103269.09;4919596;29;20120;-79
2023/02/13 05:13:51;;;;;;;9.93;6.35;;;;;;;8.71;46.45;103263.66;4911953;29;20135;-78
2023/02/13 05:16:19;;;;;;;7.82;5.63;;;;;;;8.70;46.46;103268.22;4928462;29;20044;-78
2023/02/13 05:18:48;;;;;;;10.10;6.28;;;;;;;8.69;46.33;103258.25;4927834;29;20542;-78
2023/02/13 05:24:01;;;;;;;9.63;6.28;;;;;;;8.64;46.13;103264.88;4921386;29;20051;-79
2023/02/13 05:26:29;;;;;;;9.98;6.53;;;;;;;8.60;46.56;103264.09;4930994;29;20044;-78
2023/02/13 05:31:42;;;;;;;10.30;6.57;;;;;;;8.55;46.53;103263.41;4911159;29;20074;-79
2023/02/13 05:34:12;;;;;;;10.52;6.63;;;;;;;8.55;46.04;103268.84;4899522;29;20046;-78
2023/02/13 05:36:40;;;;;;;10.35;6.75;;;;;;;8.51;46.36;103269.03;4913881;29;20050;-79
2023/02/13 05:39:08;;;;;;;10.10;6.47;;;;;;;8.50;46.38;103265.44;4914841;29;20044;-78
2023/02/13 05:41:36;;;;;;;9.43;6.50;;;;;;;8.47;46.19;103260.09;4909162;29;20411;-79
2023/02/13 05:44:04;;;;;;;11.27;7.22;;;;;;;8.46;46.33;103271.06;4928537;29;20543;-78
2023/02/13 05:46:32;;;;;;;10.63;6.70;;;;;;;8.44;46.56;103270.22;4926975;29;20036;-78
2023/02/13 05:49:00;;;;;;;10.88;6.63;;;;;;;8.43;46.49;103269.34;4916631;29;20048;-78
2023/02/13 05:51:33;;;;;;;10.18;7.07;;;;;;;8.41;46.22;103268.53;4911653;29;20056;-79
2023/02/13 05:54:01;;;;;;;10.60;6.82;;;;;;;8.41;46.22;103267.66;4922935;29;20051;-79
2023/02/13 05:56:29;;;;;;;10.65;7.03;;;;;;;8.39;46.57;103273.16;4904360;29;20314;-79
2023/02/13 05:58:57;;;;;;;10.82;7.25;;;;;;;8.38;46.36;103267.75;4930552;29;20052;-79
2023/02/13 06:01:25;;;;;;;10.32;6.63;;;;;;;8.37;46.31;103282.34;4918479;29;20056;-79
2023/02/13 06:03:53;;;;;;;9.52;6.63;;;;;;;8.36;46.48;103266.91;4913410;29;20553;-78
2023/02/13 06:06:21;;;;;;;11.80;7.20;;;;;;;8.35;46.10;103263.31;4926234;29;20044;-79
2023/02/13 06:08:50;;;;;;;11.23;7.28;;;;;;;8.35;46.20;103268.75;4925360;29;20055;-79
2023/02/13 06:11:18;;;;;;;10.85;6.75;;;;;;;8.33;46.26;103259.78;4921358;29;20078;-80
2023/02/13 06:13:46;;;;;;;10.65;6.72;;;;;;;8.29;46.64;103261.72;4911175;29;20048;-79
2023/02/13 06:16:14;;;;;;;10.00;6.80;;;;;;;8.29;46.49;103258.09;4923776;29;20047;-80
2023/02/13 06:18:42;;;;;;;11.45;6.60;;;;;;;8.29;46.55;103256.25;4920841;29;20036;-80
2023/02/13 06:21:10;;;;;;;10.88;7.32;;;;;;;8.29;46.22;103264.44;4915279;29;20059;-80
2023/02/13 06:23:38;;;;;;;10.95;6.80;;;;;;;8.28;46.63;103259.03;4929391;29;20459;-80
2023/02/13 06:26:08;;;;;;;11.32;7.30;;;;;;;8.29;46.43;103269.00;4914763;29;20044;-79
2023/02/13 06:28:36;;;;;;;10.27;6.55;;;;;;;8.28;46.42;103261.78;4935791;29;20108;-80
2023/02/13 06:31:05;;;;;;;10.35;6.97;;;;;;;8.26;46.26;103267.28;4938243;29;20040;-78
2023/02/13 06:33:33;;;;;;;10.95;6.65;;;;;;;8.25;46.43;103259.19;4932103;29;20044;-79
2023/02/13 06:36:01;;;;;;;11.55;7.50;;;;;;;8.23;46.20;103270.16;4921106;29;20044;-79
2023/02/13 06:38:29;;;;;;;11.57;6.97;;;;;;;8.23;46.58;103264.69;4926362;29;20509;-79
2023/02/13 06:41:01;;;;;;;10.73;6.63;;;;;;;8.23;46.37;103261.97;4923035;29;20044;-80
2023/02/13 06:43:30;;;;;;;12.00;7.25;;;;;;;8.21;46.22;103266.59;4925999;29;20048;-80
2023/02/13 06:45:58;;;;;;;10.70;6.82;;;;;;;8.19;46.22;103265.75;4937675;29;20040;-79
2023/02/13 06:48:26;;;;;;;11.13;7.30;;;;;;;8.18;46.45;103258.50;4927857;29;20051;-79
2023/02/13 06:50:54;;;;;;;9.73;6.68;;;;;;;8.16;46.44;103263.16;4929231;29;20080;-80
2023/02/13 06:53:23;;;;;;;10.82;7.05;;;;;;;8.15;46.11;103266.84;4944074;29;20044;-79
2023/02/13 06:55:52;;;;;;;10.85;7.15;;;;;;;8.14;46.55;103267.78;4929985;29;20094;-79
2023/02/13 06:58:20;;;;;;;10.45;6.85;;;;;;;8.12;46.37;103264.19;4927488;29;20048;-80
2023/02/13 07:00:50;;;;;;;11.95;7.22;;;;;;;8.13;46.64;103265.06;4909221;29;20047;-79
2023/02/13 07:03:18;;;;;;;10.45;6.38;;;;;;;8.10;46.70;103260.63;4921853;29;20052;-79
2023/02/13 07:05:46;;;;;;;10.75;6.90;;;;;;;8.09;46.56;103266.16;4913102;29;20512;-80
2023/02/13 07:08:14;;;;;;;11.15;6.50;;;;;;;8.09;46.74;103269.78;4910261;29;20044;-78
2023/02/13 07:10:42;;;;;;;12.18;7.43;;;;;;;8.08;46.61;103269.84;4915447;29;20044;-78
2023/02/13 07:13:12;;;;;;;10.98;6.55;;;;;;;8.07;46.33;103268.06;4929309;29;20044;-78
2023/02/13 07:15:40;;;;;;;13.52;7.82;;;;;;;8.05;46.43;103269.94;4919207;29;20448;-79
2023/02/13 07:18:09;;;;;;;9.18;6.40;;;;;;;8.06;46.16;103264.44;4927625;29;20635;-79
2023/02/13 07:20:37;;;;;;;10.55;6.55;;;;;;;8.05;46.82;103265.38;4922724;29;20387;-79
2023/02/13 07:23:06;;;;;;;10.02;6.70;;;;;;;8.05;47.09;103268.09;4914812;29;20067;-78
2023/02/13 07:25:34;;;;;;;11.50;7.03;;;;;;;8.06;47.44;103269.88;4922219;29;20467;-79
2023/02/13 07:28:03;;;;;;;10.10;6.90;;;;;;;8.10;47.52;103265.19;4904600;29;20424;-78
2023/02/13 07:30:32;;;;;;;10.35;6.70;;;;;;;8.14;47.70;103272.34;4924573;29;20051;-79
2023/02/13 07:33:01;;;;;;;10.50;6.90;;;;;;;8.22;47.55;103264.75;4906414;29;20146;-79
2023/02/13 07:35:30;;;;;;;10.98;7.55;;;;;;;8.29;47.37;103264.44;4910594;29;20054;-79
2023/02/13 07:37:59;;;;;;;9.32;6.25;;;;;;;8.36;47.25;103272.38;4917455;29;20564;-78
2023/02/13 07:40:27;;;;;;;11.05;6.63;;;;;;;8.42;46.79;103275.78;4923587;29;20514;-79
2023/02/13 07:42:55;;;;;;;10.73;6.97;;;;;;;8.47;46.99;103275.56;4916383;29;20529;-79
2023/02/13 07:45:23;;;;;;;9.77;7.25;;;;;;;8.50;46.45;103272.72;4927367;29;20044;-78
2023/02/13 07:47:51;;;;;;;10.35;6.93;;;;;;;8.53;46.58;103278.06;4928783;29;20384;-78
2023/02/13 07:50:19;;;;;;;11.02;6.85;;;;;;;8.56;46.25;103286.13;4918691;29;20376;-78
2023/02/13 07:52:54;;;;;;;9.10;6.30;;;;;;;8.59;46.22;103281.41;4917427;29;20051;-78
2023/02/13 07:55:22;;;;;;;10.45;6.88;;;;;;;8.56;46.02;103281.56;4923914;29;20482;-78
2023/02/13 07:57:50;;;;;;;11.65;7.60;;;;;;;8.58;46.37;103285.13;4921093;29;20424;-78
2023/02/13 08:00:19;;;;;;;11.73;6.90;;;;;;;8.58;46.12;103285.13;4921734;29;20131;-78
2023/02/13 08:02:47;;;;;;;10.10;6.72;;;;;;;8.58;46.16;103286.97;4929570;29;20040;-77
2023/02/13 08:05:15;;;;;;;10.88;6.93;;;;;;;8.57;45.89;103282.44;4931591;29;20080;-78
2023/02/13 08:07:43;;;;;;;10.68;6.40;;;;;;;8.54;45.84;103279.84;4928692;29;20259;-77
2023/02/13 08:12:59;;;;;;;10.52;6.85;;;;;;;8.53;46.18;103278.94;4928317;29;20048;-78
2023/02/13 08:15:27;;;;;;;10.52;6.90;;;;;;;8.53;45.92;103281.66;4912834;29;20082;-78
2023/02/13 08:17:55;;;;;;;11.60;6.85;;;;;;;8.53;45.86;103286.25;4911090;29;20400;-78
2023/02/13 08:20:24;;;;;;;9.82;6.43;;;;;;;8.52;46.01;103281.72;4912204;29;20115;-78
2023/02/13 08:22:52;;;;;;;10.27;6.75;;;;;;;8.49;45.65;103279.13;4908517;29;20107;-77
2023/02/13 08:25:21;;;;;;;10.85;7.18;;;;;;;8.49;46.05;103282.75;4903887;29;20055;-79
2023/02/13 08:27:48;;;;;;;10.13;6.93;;;;;;;8.46;45.91;103282.88;4915187;29;20072;-77
2023/02/13 08:30:16;;;;;;;10.20;6.50;;;;;;;8.45;45.88;103286.53;4935457;29;20036;-77
2023/02/13 08:32:44;;;;;;;9.18;6.22;;;;;;;8.45;45.65;103289.28;4941621;29;20064;-77
2023/02/13 08:35:25;;;;;;;9.32;6.18;;;;;;;8.44;46.19;103284.75;4933535;29;20044;-77
2023/02/13 08:37:53;;;;;;;9.40;6.20;;;;;;;8.43;45.86;103282.09;4923838;29;20067;-78
2023/02/13 08:40:22;;;;;;;10.65;6.70;;;;;;;8.46;45.95;103292.91;4904019;29;20051;-78
2023/02/13 08:42:52;;;;;;;10.77;6.93;;;;;;;8.44;46.14;103297.53;4910272;29;20146;-78
2023/02/13 08:45:22;;;;;;;10.88;6.75;;;;;;;8.41;45.71;103289.47;4915764;29;20262;-78
2023/02/13 08:47:49;;;;;;;11.57;7.13;;;;;;;8.42;45.85;103288.53;4934284;29;20046;-77
2023/02/13 08:50:17;;;;;;;10.45;6.15;;;;;;;8.41;46.01;103286.75;4916522;29;20123;-78
2023/02/13 08:52:45;;;;;;;10.35;6.82;;;;;;;8.41;45.91;103281.28;4920373;29;20108;-77
2023/02/13 08:55:13;;;;;;;11.00;6.80;;;;;;;8.41;46.26;103290.38;4915986;29;20058;-77
2023/02/13 08:57:42;;;;;;;10.63;6.78;;;;;;;8.46;46.20;103285.59;4903406;29;20052;-77
2023/02/13 09:00:11;;;;;;;9.65;6.30;;;;;;;8.48;46.28;103285.53;4911302;29;20040;-78
2023/02/13 09:02:39;;;;;;;9.30;6.28;;;;;;;8.52;46.35;103284.44;4907920;29;20047;-78
2023/02/13 09:05:07;;;;;;;9.25;6.00;;;;;;;8.59;46.57;103285.97;4915260;29;20519;-77
2023/02/13 09:07:35;;;;;;;9.35;6.15;;;;;;;8.65;46.56;103286.66;4906479;29;20141;-78
2023/02/13 09:10:03;;;;;;;10.13;6.65;;;;;;;8.73;46.71;103285.44;4911640;29;20052;-77
2023/02/13 09:12:30;;;;;;;9.55;6.15;;;;;;;8.83;46.85;103282.25;4919685;29;20055;-77
2023/02/13 09:15:00;;;;;;;9.48;6.03;;;;;;;8.92;46.52;103287.31;4922567;29;20051;-76
2023/02/13 09:17:27;;;;;;;9.75;6.18;;;;;;;9.01;46.92;103292.38;4909842;29;20063;-76
2023/02/13 09:19:55;;;;;;;9.27;6.22;;;;;;;9.12;46.62;103281.00;4898929;29;20044;-76
2023/02/13 09:22:23;;;;;;;9.15;6.40;;;;;;;9.23;46.20;103286.03;4930390;29;20106;-77
2023/02/13 09:24:51;;;;;;;9.45;6.20;;;;;;;9.35;46.59;103288.19;4915915;29;20160;-77
2023/02/13 09:27:19;;;;;;;8.68;5.88;;;;;;;9.48;46.05;103288.59;4933890;29;20071;-76
2023/02/13 09:29:47;;;;;;;9.05;6.07;;;;;;;9.59;45.88;103278.94;4920861;29;20141;-77
2023/02/13 09:32:17;;;;;;;9.80;5.90;;;;;;;9.73;46.25;103281.06;4922060;29;20053;-77
2023/02/13 09:34:44;;;;;;;9.27;6.13;;;;;;;9.83;45.71;103279.66;4918561;29;20048;-77
2023/02/13 09:37:12;;;;;;;8.63;5.47;;;;;;;9.95;45.56;103287.31;4923630;29;20040;-76
2023/02/13 09:39:40;;;;;;;9.55;5.70;;;;;;;10.06;45.55;103282.25;4918503;29;20290;-75
2023/02/13 09:42:19;;;;;;;9.18;6.13;;;;;;;10.20;44.42;103281.56;4914836;29;20052;-75
2023/02/13 09:44:48;;;;;;;8.80;5.82;;;;;;;10.31;45.29;103284.69;4929293;29;20130;-76
2023/02/13 09:47:28;;;;;;;9.45;5.95;;;;;;;10.44;44.48;103290.44;4923121;29;20476;-78
2023/02/13 09:50:00;;;;;;;9.20;6.10;;;;;;;10.52;43.98;103286.38;4913931;29;20035;-80
2023/02/13 09:52:33;;;;;;;7.95;5.70;;;;;;;10.62;43.76;103294.19;4913897;29;20156;-78
2023/02/13 09:55:01;;;;;;;9.38;6.40;;;;;;;10.69;44.65;103288.31;4926859;29;20079;-78
2023/02/13 09:57:33;;;;;;;7.47;5.13;;;;;;;10.82;44.14;103289.47;4924413;29;20044;-78
2023/02/13 10:00:12;;;;;;;8.68;5.90;;;;;;;10.90;43.01;103291.81;4914841;29;20277;-78
2023/02/13 10:03:00;;;;;;;8.45;5.47;;;;;;;10.99;42.69;103292.25;4915338;29;20146;-78
2023/02/13 10:05:55;;;;;;;8.63;5.72;;;;;;;11.08;42.43;103295.47;4924529;29;20066;-77
2023/02/13 10:08:41;;;;;;;8.48;5.85;;;;;;;11.18;42.89;103289.44;4914635;29;20047;-76
2023/02/13 10:11:24;;;;;;;7.95;5.30;;;;;;;11.28;43.00;103285.28;4920145;29;20116;-78
2023/02/13 10:14:06;;;;;;;7.60;5.05;;;;;;;11.38;42.24;103284.78;4902850;29;20044;-77
2023/02/13 10:16:38;;;;;;;7.60;5.40;;;;;;;11.46;43.17;103279.78;4910569;29;20063;-77
2023/02/13 10:19:16;;;;;;;7.55;5.05;;;;;;;11.55;42.01;103284.78;4935876;29;20078;-77
2023/02/13 10:21:51;;;;;;;7.72;5.05;;;;;;;11.60;41.76;103289.06;4926907;29;20056;-78
2023/02/13 10:24:29;;;;;;;7.57;5.40;;;;;;;11.67;41.65;103295.13;4919999;29;20139;-78
2023/02/13 10:27:00;;;;;;;7.40;5.20;;;;;;;11.71;42.36;103288.50;4909609;29;20052;-78
2023/02/13 10:32:29;;;;;;;8.13;5.55;;;;;;;11.82;41.12;103285.16;4910507;29;20055;-78
2023/02/13 10:35:03;;;;;;;7.05;4.88;;;;;;;11.88;41.30;103288.50;4911066;29;20107;-78
2023/02/13 10:37:31;;;;;;;7.63;4.88;;;;;;;11.91;41.80;103291.03;4918898;29;20059;-77
2023/02/13 10:39:59;;;;;;;7.93;5.10;;;;;;;11.95;41.79;103286.28;4915905;29;20032;-78
2023/02/13 10:42:37;;;;;;;7.75;5.47;;;;;;;12.02;40.60;103293.22;4919922;29;20051;-75
2023/02/13 10:45:28;;;;;;;7.57;5.28;;;;;;;12.04;40.21;103283.03;4907308;29;20052;-76
2023/02/13 10:48:19;;;;;;;6.53;4.50;;;;;;;12.09;40.77;103291.88;4919984;29;20056;-77
2023/02/13 10:50:59;;;;;;;7.68;4.57;;;;;;;12.15;40.48;103296.13;4917255;29;20044;-77
2023/02/13 10:53:40;;;;;;;8.65;4.90;;;;;;;12.21;40.75;103287.59;4918141;29;20131;-78
2023/02/13 10:56:30;;;;;;;7.45;5.18;;;;;;;12.27;40.36;103288.13;4916008;29;20082;-78
2023/02/13 10:59:14;;;;;;;6.72;4.80;;;;;;;12.33;40.66;103286.88;4913333;29;20074;-78
2023/02/13 11:01:49;;;;;;;6.70;4.18;;;;;;;12.40;40.49;103282.81;4908749;29;20111;-78
2023/02/13 11:04:19;;;;;;;7.53;4.85;;;;;;;12.45;41.24;103280.69;4923937;29;20048;-77
2023/02/13 11:06:55;;;;;;;7.70;5.13;;;;;;;12.51;40.19;103274.84;4912959;29;20108;-78
2023/02/13 11:09:24;;;;;;;7.97;4.50;;;;;;;12.56;40.80;103269.97;4910193;29;20135;-77
2023/02/13 11:11:53;;;;;;;6.82;4.13;;;;;;;12.62;40.56;103275.16;4936089;29;20558;-76
2023/02/13 11:14:22;;;;;;;7.13;4.88;;;;;;;12.67;40.66;103272.13;4919616;29;20052;-77
2023/02/13 11:16:55;;;;;;;6.63;4.28;;;;;;;12.69;40.10;103262.81;4916754;29;20503;-77
2023/02/13 11:19:28;;;;;;;7.65;4.90;;;;;;;12.71;39.73;103258.09;4915516;29;20054;-77
2023/02/13 11:22:02;;;;;;;6.63;4.53;;;;;;;12.76;39.34;103250.50;4909358;29;20048;-77
2023/02/13 11:24:32;;;;;;;7.95;4.97;;;;;;;12.79;39.62;103250.28;4928583;29;20067;-77
2023/02/13 11:27:04;;;;;;;5.85;4.05;;;;;;;12.81;39.46;103244.72;4919552;29;20504;-77
2023/02/13 11:29:34;;;;;;;7.40;5.20;;;;;;;12.85;39.99;103240.81;4914267;29;20067;-76
2023/02/13 11:32:18;;;;;;;6.78;4.25;;;;;;;12.91;39.25;103237.69;4916761;29;20171;-76
2023/02/13 11:34:49;;;;;;;6.97;4.55;;;;;;;12.94;39.59;103222.91;4926416;29;20079;-76
2023/02/13 11:37:22;;;;;;;6.07;4.20;;;;;;;13.01;38.80;103229.78;4918210;29;20988;-77
2023/02/13 11:39:52;;;;;;;5.70;4.03;;;;;;;13.06;39.50;103227.63;4921209;29;20594;-77
2023/02/13 11:42:27;;;;;;;6.45;4.00;;;;;;;13.13;39.26;103220.78;4937931;29;20047;-76
2023/02/13 11:44:59;;;;;;;5.93;3.72;;;;;;;13.20;39.01;103227.69;4933768;29;20119;-77
2023/02/13 11:47:39;;;;;;;6.78;4.22;;;;;;;13.27;38.44;103228.19;4904024;29;20487;-76
2023/02/13 11:50:22;;;;;;;7.22;4.75;;;;;;;13.34;37.54;103224.09;4915185;29;20103;-76
2023/02/13 11:52:58;;;;;;;7.30;4.60;;;;;;;13.39;37.72;103213.66;4924582;29;20405;-76
2023/02/13 11:55:30;;;;;;;6.43;4.07;;;;;;;13.45;38.63;103214.16;4902106;29;20058;-77
2023/02/13 11:58:00;;;;;;;7.30;4.40;;;;;;;13.51;39.08;103211.06;4917566;29;20434;-77
2023/02/13 12:00:38;;;;;;;6.35;4.05;;;;;;;13.58;38.28;103212.47;4906285;29;20074;-78
2023/02/13 12:03:27;;;;;;;5.75;4.05;;;;;;;13.62;38.05;103214.03;4925030;29;20392;-78
2023/02/13 12:06:05;;;;;;;6.43;4.07;;;;;;;13.70;38.10;103198.88;4914882;29;20054;-78
2023/02/13 12:08:36;;;;;;;6.18;3.80;;;;;;;13.75;38.77;103196.75;4908852;29;20063;-77
2023/02/13 12:11:20;;;;;;;6.18;3.80;;;;;;;13.83;37.89;103199.88;4932721;29;20110;-77
2023/02/13 12:13:50;;;;;;;6.63;3.88;;;;;;;13.88;38.50;103189.44;4900695;29;20060;-77
2023/02/13 12:16:38;;;;;;;5.32;3.65;;;;;;;13.94;36.92;103186.31;4930610;29;20126;-78
2023/02/13 12:19:11;;;;;;;5.70;3.58;;;;;;;14.00;38.30;103188.66;4929666;29;20063;-77
2023/02/13 12:22:00;;;;;;;6.13;3.70;;;;;;;14.08;37.11;103189.03;4908976;29;20135;-78
2023/02/13 12:24:46;;;;;;;5.18;3.50;;;;;;;14.14;37.13;103185.88;4898424;29;20146;-77
2023/02/13 12:27:23;;;;;;;5.47;3.38;;;;;;;14.21;37.13;103183.59;4918319;29;20048;-77
2023/02/13 12:30:14;;;;;;;6.28;3.67;;;;;;;14.25;36.70;103175.03;4925749;29;20058;-77
2023/02/13 12:32:52;;;;;;;5.55;3.47;;;;;;;14.32;36.72;103181.91;4913348;29;20147;-77
2023/02/13 12:35:39;;;;;;;5.40;3.33;;;;;;;14.37;36.56;103165.06;4908845;29;20523;-77
2023/02/13 12:38:20;;;;;;;5.95;3.55;;;;;;;14.43;36.43;103163.78;4899828;29;20048;-76
2023/02/13 12:41:14;;;;;;;5.55;3.47;;;;;;;14.48;36.47;103168.00;4903374;29;20048;-77
2023/02/13 12:44:06;;;;;;;5.57;3.50;;;;;;;14.52;35.99;103161.28;4913294;29;20138;-79